createdAt,value
2022-11-22T00:04:43.924Z,98412.84
2022-11-22T00:09:45.287Z,98410.69
2022-11-22T00:14:46.693Z,98407.13
2022-11-22T00:19:48.164Z,98405.47
2022-11-22T00:24:51.241Z,98400.31
2022-11-22T00:29:52.640Z,98390.78
2022-11-22T00:34:54.023Z,98380.72
2022-11-22T00:39:55.391Z,98366.28
2022-11-22T00:44:56.767Z,98378.25
2022-11-22T00:49:58.143Z,98380.97
2022-11-22T00:54:59.543Z,98383.69
2022-11-22T01:00:00.924Z,98393.53
2022-11-22T01:05:02.317Z,98391.34
2022-11-22T01:10:04.396Z,98392.69
2022-11-22T01:15:06.388Z,98388.59
2022-11-22T01:20:08.620Z,98385.59
2022-11-22T01:25:10.044Z,98370.38
2022-11-22T01:30:11.973Z,98367.13
2022-11-22T01:35:13.461Z,98353.50
2022-11-22T01:40:14.867Z,98357.56
2022-11-22T01:45:31.545Z,98355.94
2022-11-22T01:50:35.303Z,98356.47
2022-11-22T01:55:36.677Z,98357.00
2022-11-22T02:00:38.428Z,98355.13
2022-11-22T02:05:39.851Z,98347.22
2022-11-22T02:10:43.750Z,98346.94
2022-11-22T02:15:45.125Z,98345.56
2022-11-22T02:20:46.533Z,98339.03
2022-11-22T02:25:56.375Z,98336.88
2022-11-22T02:30:57.771Z,98333.63
2022-11-22T02:35:59.142Z,98333.03
2022-11-22T02:41:03.346Z,98328.41
2022-11-22T02:46:09.821Z,98322.44
2022-11-22T02:51:11.280Z,98327.59
2022-11-22T02:56:12.689Z,98311.00
2022-11-22T03:01:14.193Z,98296.56
2022-11-22T03:06:15.637Z,98304.47
2022-11-22T03:11:17.014Z,98305.03
2022-11-22T03:16:18.477Z,98309.09
2022-11-22T03:21:19.887Z,98317.00
2022-11-22T03:26:21.288Z,98316.72
2022-11-22T03:31:22.694Z,98323.81
2022-11-22T03:36:24.069Z,98321.06
2022-11-22T03:41:25.451Z,98310.44
2022-11-22T03:46:26.807Z,98308.81
2022-11-22T03:51:28.215Z,98292.50
2022-11-22T03:56:29.600Z,98294.41
2022-11-22T04:01:30.999Z,98294.69
2022-11-22T04:06:32.412Z,98291.38
2022-11-22T04:11:33.851Z,98297.94
2022-11-22T04:16:35.232Z,98288.69
2022-11-22T04:21:36.659Z,98269.03
2022-11-22T04:26:38.090Z,98258.75
2022-11-22T04:31:57.971Z,98261.72
2022-11-22T04:36:59.591Z,98258.19
2022-11-22T04:42:19.378Z,98265.81
2022-11-22T04:47:39.037Z,98267.16
2022-11-22T04:52:55.337Z,98248.94
2022-11-22T04:58:00.062Z,98248.09
2022-11-22T05:03:01.821Z,98242.66
2022-11-22T05:08:03.256Z,98232.31
2022-11-22T05:13:04.652Z,98237.75
2022-11-22T05:18:06.060Z,98241.84
2022-11-22T05:23:25.916Z,98236.94
2022-11-22T05:28:31.164Z,98245.91
2022-11-22T05:33:32.566Z,98250.00
2022-11-22T05:38:37.697Z,98252.19
2022-11-22T05:43:39.305Z,98261.44
2022-11-22T05:48:42.399Z,98243.19
2022-11-22T05:53:44.056Z,98255.97
2022-11-22T05:58:45.483Z,98260.06
2022-11-22T06:03:48.309Z,98254.34
2022-11-22T06:08:51.037Z,98260.63
2022-11-22T06:13:53.983Z,98267.16
2022-11-22T06:18:55.355Z,98276.69
2022-11-22T06:23:56.864Z,98283.22
2022-11-22T06:28:58.339Z,98279.97
2022-11-22T06:34:00.244Z,98292.47
2022-11-22T06:39:03.365Z,98287.28
2022-11-22T06:44:06.355Z,98296.00
2022-11-22T06:49:07.732Z,98307.72
2022-11-22T06:54:11.932Z,98304.72
2022-11-22T06:59:13.394Z,98305.84
2022-11-22T07:04:14.760Z,98315.09
2022-11-22T07:09:16.126Z,98312.34
2022-11-22T07:14:17.525Z,98312.38
2022-11-22T07:19:18.916Z,98325.16
2022-11-22T07:24:20.345Z,98321.59
2022-11-22T07:29:21.723Z,98310.97
2022-11-22T07:34:23.176Z,98326.25
2022-11-22T07:39:24.550Z,98338.22
2022-11-22T07:44:25.928Z,98348.31
2022-11-22T07:49:27.545Z,98343.41
2022-11-22T07:54:29.091Z,98342.06
2022-11-22T07:59:30.732Z,98340.94
2022-11-22T08:04:32.304Z,98354.31
2022-11-22T08:09:33.677Z,98346.94
2022-11-22T08:14:35.056Z,98377.44
2022-11-22T08:19:36.547Z,98372.00
2022-11-22T08:24:37.910Z,98368.47
2022-11-22T08:29:39.290Z,98363.84
2022-11-22T08:34:46.901Z,98378.28
2022-11-22T08:39:48.735Z,98383.72
2022-11-22T08:44:50.304Z,98392.19
2022-11-22T08:49:51.720Z,98388.63
2022-11-22T08:54:53.118Z,98377.72
2022-11-22T08:59:54.493Z,98373.38
2022-11-22T09:04:55.856Z,98388.91
2022-11-22T09:09:57.234Z,98393.25
2022-11-22T09:14:58.616Z,98402.81
2022-11-22T09:19:59.987Z,98415.31
2022-11-22T09:25:01.617Z,98412.88
2022-11-22T09:30:03.101Z,98440.13
2022-11-22T09:35:04.735Z,98438.50
2022-11-22T09:40:06.694Z,98448.59
2022-11-22T09:45:16.497Z,98440.41
2022-11-22T09:50:45.430Z,98446.69
2022-11-22T09:55:48.307Z,98422.41
2022-11-22T10:00:52.365Z,98427.31
2022-11-22T10:05:56.260Z,98451.03
2022-11-22T10:10:57.691Z,98462.22
2022-11-22T10:16:18.406Z,98454.03
2022-11-22T10:21:19.866Z,98467.91
2022-11-22T10:26:26.131Z,98471.47
2022-11-22T10:31:35.231Z,98472.00
2022-11-22T10:37:06.668Z,98488.91
2022-11-22T10:42:33.248Z,98473.66
2022-11-22T10:47:43.096Z,98463.84
2022-11-22T10:52:51.607Z,98455.66
2022-11-22T10:58:02.552Z,98455.41
2022-11-22T11:03:15.777Z,98464.13
2022-11-22T11:08:42.013Z,98474.72
2022-11-22T11:13:59.732Z,98470.41
2022-11-22T11:19:14.049Z,98474.72
2022-11-22T11:24:15.981Z,98461.38
2022-11-22T11:29:17.179Z,98454.56
2022-11-22T11:34:22.288Z,98469.31
2022-11-22T11:39:27.896Z,98464.94
2022-11-22T11:44:35.139Z,98444.78
2022-11-22T11:49:36.504Z,98447.75
2022-11-22T11:54:48.205Z,98443.66
2022-11-22T11:59:49.922Z,98446.69
2022-11-22T12:05:07.450Z,98441.75
2022-11-22T12:10:27.610Z,98443.41
2022-11-22T12:15:56.780Z,98450.75
2022-11-22T12:21:17.200Z,98444.78
2022-11-22T12:26:19.206Z,98452.94
2022-11-22T12:31:25.651Z,98455.13
2022-11-22T12:36:38.160Z,98453.22
2022-11-22T12:51:59.143Z,98448.59
2022-11-22T12:57:04.587Z,98439.31
2022-11-22T13:02:30.675Z,98442.03
2022-11-22T13:07:35.011Z,98436.59
2022-11-22T13:12:37.472Z,98441.78
2022-11-22T13:17:38.879Z,98446.41
2022-11-22T13:22:55.835Z,98450.19
2022-11-22T13:27:59.434Z,98447.47
2022-11-22T13:33:00.915Z,98446.94
2022-11-22T13:38:06.384Z,98440.41
2022-11-22T13:43:17.967Z,98448.03
2022-11-22T13:48:41.354Z,98435.50
2022-11-22T13:53:46.589Z,98437.69
2022-11-22T13:58:51.159Z,98454.03
2022-11-22T14:03:52.981Z,98446.41
2022-11-22T14:09:21.709Z,98445.03
2022-11-22T14:14:33.099Z,98449.69
2022-11-22T14:20:19.861Z,98444.78
2022-11-22T14:25:35.399Z,98452.69
2022-11-22T14:30:46.846Z,98424.91
2022-11-22T14:36:06.383Z,98423.50
2022-11-22T14:46:52.230Z,98432.22
2022-11-22T14:51:52.595Z,98436.03
2022-11-22T14:56:54.052Z,98432.78
2022-11-22T15:02:27.981Z,98436.03
2022-11-22T15:09:13.536Z,98448.59
2022-11-22T15:57:24.544Z,98488.38
2022-11-22T16:02:33.043Z,98484.00
2022-11-22T16:07:45.649Z,98493.81
2022-11-22T16:12:47.142Z,98492.72
2022-11-22T16:17:49.679Z,98498.69
2022-11-22T16:23:04.480Z,98496.00
2022-11-22T16:28:20.242Z,98481.81
2022-11-22T16:33:21.492Z,98491.63
2022-11-22T16:38:22.983Z,98494.06
2022-11-22T16:43:25.021Z,98485.38
2022-11-22T16:48:32.645Z,98507.41
2022-11-22T16:53:45.296Z,98518.59
2022-11-22T16:58:47.315Z,98530.31
2022-11-22T17:03:49.831Z,98540.09
2022-11-22T17:08:52.893Z,98543.66
2022-11-22T17:13:54.396Z,98553.44
2022-11-22T17:18:55.903Z,98563.78
2022-11-22T17:23:59.187Z,98554.25
2022-11-22T17:29:00.560Z,98555.09
2022-11-22T17:34:01.933Z,98564.88
2022-11-22T17:39:07.686Z,98568.69
2022-11-22T17:44:12.517Z,98558.59
2022-11-22T17:49:16.423Z,98576.06
2022-11-22T17:54:18.023Z,98586.66
2022-11-22T17:59:19.390Z,98588.84
2022-11-22T18:04:20.764Z,98598.91
2022-11-22T18:09:22.120Z,98604.91
2022-11-22T18:14:23.507Z,98598.63
2022-11-22T18:19:24.876Z,98601.09
2022-11-22T18:24:26.251Z,98596.19
2022-11-22T18:29:43.399Z,98594.00
2022-11-22T18:34:44.815Z,98608.97
2022-11-22T18:39:46.183Z,98620.44
2022-11-22T18:44:47.546Z,98622.88
2022-11-22T18:49:48.933Z,98615.78
2022-11-22T18:54:51.763Z,98627.22
2022-11-22T18:59:53.182Z,98637.03
2022-11-22T19:04:54.599Z,98639.75
2022-11-22T19:09:57.072Z,98633.78
2022-11-22T19:14:58.648Z,98633.19
2022-11-22T19:20:00.090Z,98623.66
2022-11-22T19:25:01.464Z,98633.19
2022-11-22T19:30:03.241Z,98639.75
2022-11-22T19:35:04.915Z,98646.28
2022-11-22T19:40:06.953Z,98661.78
2022-11-22T19:45:08.804Z,98677.88
2022-11-22T19:50:10.188Z,98680.59
2022-11-22T19:55:11.596Z,98682.72
2022-11-22T20:00:13.356Z,98680.03
2022-11-22T20:05:14.716Z,98683.31
2022-11-22T20:10:16.124Z,98681.38
2022-11-22T20:15:18.140Z,98686.03
2022-11-22T20:20:19.511Z,98681.97
2022-11-22T20:25:20.882Z,98687.69
2022-11-22T20:30:22.251Z,98691.81
2022-11-22T20:35:23.616Z,98681.97
2022-11-22T20:40:24.982Z,98695.31
2022-11-22T20:45:26.429Z,98694.22
2022-11-22T20:50:27.800Z,98696.66
2022-11-22T20:55:29.194Z,98697.78
2022-11-22T21:00:30.550Z,98692.84
2022-11-22T21:05:31.924Z,98689.81
2022-11-22T21:10:33.287Z,98699.91
2022-11-22T21:15:34.707Z,98691.22
2022-11-22T21:20:37.096Z,98695.81
2022-11-22T21:25:38.479Z,98703.16
2022-11-22T21:30:40.089Z,98704.84
2022-11-22T21:35:45.457Z,98704.28
2022-11-22T21:41:37.678Z,98702.91
2022-11-22T21:46:27.706Z,98695.81
2022-11-22T21:51:29.071Z,98700.97
2022-11-22T21:56:30.517Z,98702.63
2022-11-22T22:01:31.974Z,98694.44
2022-11-22T22:06:33.420Z,98696.94
2022-11-22T22:11:34.822Z,98700.97
2022-11-22T22:16:36.240Z,98696.66
2022-11-22T22:21:37.608Z,98706.69
2022-11-22T22:26:39.015Z,98707.25
2022-11-22T22:31:40.371Z,98712.72
2022-11-22T22:36:41.744Z,98705.63
2022-11-22T22:47:14.503Z,98716.25
2022-11-22T22:52:15.879Z,98711.63
2022-11-22T22:57:17.287Z,98721.72
2022-11-22T23:02:18.771Z,98712.44
2022-11-22T23:07:20.224Z,98707.53
2022-11-22T23:12:21.747Z,98710.50
2022-11-22T23:17:23.528Z,98730.06
2022-11-22T23:22:26.145Z,98724.41
2022-11-22T23:27:27.592Z,98726.59
2022-11-22T23:32:31.778Z,98726.00
2022-11-22T23:37:33.144Z,98721.13
2022-11-22T23:42:34.515Z,98712.16
2022-11-22T23:47:36.008Z,98724.69
2022-11-22T23:52:37.372Z,98735.84
2022-11-22T23:57:38.772Z,98746.19
